createdAt,value
2019-03-26T00:01:18.134Z,97.20
2019-03-26T00:03:50.495Z,97.10
2019-03-26T00:06:21.862Z,97.20
2019-03-26T00:08:53.168Z,97.20
2019-03-26T00:11:24.377Z,97.40
2019-03-26T00:13:57.713Z,97.20
2019-03-26T00:16:28.776Z,97.20
2019-03-26T00:19:00.091Z,97.40
2019-03-26T00:21:31.415Z,97.30
2019-03-26T00:24:02.698Z,97.20
2019-03-26T00:26:34.134Z,97.20
2019-03-26T00:29:05.405Z,97.00
2019-03-26T00:31:36.917Z,97.20
2019-03-26T00:34:18.804Z,97.30
2019-03-26T00:36:41.025Z,97.10
2019-03-26T00:39:12.328Z,97.00
2019-03-26T00:41:43.782Z,96.70
2019-03-26T00:44:15.014Z,96.80
2019-03-26T00:46:46.599Z,96.30
2019-03-26T00:49:17.945Z,96.80
2019-03-26T00:51:49.427Z,96.80
2019-03-26T00:54:20.813Z,97.10
2019-03-26T00:56:52.304Z,97.20
2019-03-26T00:59:23.540Z,97.50
2019-03-26T01:01:54.923Z,97.70
2019-03-26T01:04:32.622Z,97.80
2019-03-26T01:07:01.354Z,97.80
2019-03-26T01:09:32.626Z,97.90
2019-03-26T01:12:04.025Z,97.50
2019-03-26T01:14:35.154Z,97.60
2019-03-26T01:17:06.579Z,97.30
2019-03-26T01:19:37.869Z,97.00
2019-03-26T01:22:09.253Z,97.00
2019-03-26T01:24:41.481Z,96.90
2019-03-26T01:27:12.731Z,97.20
2019-03-26T01:29:43.994Z,97.20
2019-03-26T01:32:15.403Z,96.90
2019-03-26T01:34:46.674Z,96.50
2019-03-26T01:37:18.093Z,96.40
2019-03-26T01:39:49.254Z,95.80
2019-03-26T01:42:20.830Z,96.20
2019-03-26T01:44:53.123Z,96.20
2019-03-26T01:47:24.501Z,96.20
2019-03-26T01:49:55.792Z,96.10
2019-03-26T01:52:27.101Z,96.40
2019-03-26T01:54:58.374Z,96.70
2019-03-26T01:57:29.773Z,97.10
2019-03-26T02:00:00.986Z,96.80
2019-03-26T02:02:32.354Z,97.00
2019-03-26T02:05:03.867Z,97.50
2019-03-26T02:07:35.190Z,97.50
2019-03-26T02:10:06.613Z,97.20
2019-03-26T02:12:38.021Z,97.50
2019-03-26T02:15:09.284Z,97.10
2019-03-26T02:17:40.708Z,96.90
2019-03-26T02:20:12.012Z,96.80
2019-03-26T02:22:43.235Z,96.50
2019-03-26T02:25:14.589Z,96.80
2019-03-26T02:27:45.803Z,97.30
2019-03-26T02:30:17.076Z,97.20
2019-03-26T02:32:48.382Z,97.00
2019-03-26T02:35:19.880Z,97.10
2019-03-26T02:37:51.159Z,97.20
2019-03-26T02:40:22.503Z,97.00
2019-03-26T02:42:53.705Z,96.80
2019-03-26T02:45:25.068Z,96.60
2019-03-26T02:47:56.468Z,96.10
2019-03-26T02:50:27.659Z,95.90
2019-03-26T02:52:58.885Z,96.20
2019-03-26T02:55:30.166Z,96.80
2019-03-26T02:58:01.486Z,96.40
2019-03-26T03:00:33.796Z,97.30
2019-03-26T03:03:05.170Z,96.70
2019-03-26T03:05:36.608Z,96.10
2019-03-26T03:08:08.884Z,96.10
2019-03-26T03:10:40.291Z,96.50
2019-03-26T03:13:11.570Z,96.30
2019-03-26T03:15:42.906Z,96.40
2019-03-26T03:18:14.194Z,96.50
2019-03-26T03:20:45.482Z,97.40
2019-03-26T03:23:16.666Z,97.40
2019-03-26T03:25:47.953Z,97.70
2019-03-26T03:28:19.268Z,97.90
2019-03-26T03:30:50.560Z,97.70
2019-03-26T03:33:21.749Z,97.60
2019-03-26T03:35:53.287Z,97.60
2019-03-26T03:38:24.755Z,97.80
2019-03-26T03:40:56.072Z,97.70
2019-03-26T03:43:27.159Z,97.80
2019-03-26T03:45:58.417Z,98.00
2019-03-26T03:48:29.631Z,98.00
2019-03-26T03:51:00.945Z,97.90
2019-03-26T03:53:32.352Z,97.90
2019-03-26T03:56:03.796Z,97.70
2019-03-26T03:58:36.146Z,98.20
2019-03-26T04:01:07.436Z,98.20
2019-03-26T04:03:38.742Z,98.30
2019-03-26T04:06:10.438Z,98.30
2019-03-26T04:08:41.934Z,98.00
2019-03-26T04:11:13.237Z,97.80
2019-03-26T04:13:44.438Z,97.90
2019-03-26T04:16:15.732Z,98.00
2019-03-26T04:18:47.238Z,98.20
2019-03-26T04:21:18.641Z,98.20
2019-03-26T04:23:49.852Z,98.50
2019-03-26T04:26:21.124Z,99.10
2019-03-26T04:28:52.330Z,98.90
2019-03-26T04:31:23.606Z,99.10
2019-03-26T04:33:54.903Z,99.00
2019-03-26T04:36:26.721Z,99.30
2019-03-26T04:38:58.201Z,99.20
2019-03-26T04:41:29.613Z,99.20
2019-03-26T04:44:00.909Z,99.20
2019-03-26T04:46:32.306Z,99.00
2019-03-26T04:49:03.714Z,99.20
2019-03-26T04:51:34.890Z,99.10
2019-03-26T04:54:06.123Z,99.00
2019-03-26T04:56:37.511Z,99.10
2019-03-26T04:59:08.820Z,99.00
2019-03-26T05:01:40.071Z,98.90
2019-03-26T05:04:11.290Z,98.80
2019-03-26T05:06:42.657Z,98.80
2019-03-26T05:09:13.887Z,98.70
2019-03-26T05:11:45.265Z,98.60
2019-03-26T05:14:16.463Z,98.60
2019-03-26T05:16:48.675Z,98.30
2019-03-26T05:19:20.007Z,98.50
2019-03-26T05:21:51.422Z,98.20
2019-03-26T05:24:22.688Z,98.30
2019-03-26T05:26:54.192Z,98.30
2019-03-26T05:29:25.393Z,98.10
2019-03-26T05:31:56.699Z,98.10
2019-03-26T05:34:27.995Z,98.00
2019-03-26T05:36:59.275Z,97.50
2019-03-26T05:39:30.577Z,97.30
2019-03-26T05:42:01.903Z,97.40
2019-03-26T05:44:33.153Z,97.20
2019-03-26T05:47:04.583Z,96.50
2019-03-26T05:49:35.840Z,97.00
2019-03-26T05:52:07.373Z,97.00
2019-03-26T05:54:38.646Z,96.70
2019-03-26T05:57:10.069Z,96.80
2019-03-26T05:59:41.335Z,96.40
2019-03-26T06:02:15.162Z,96.00
2019-03-26T06:04:45.785Z,96.60
2019-03-26T06:07:17.236Z,96.00
2019-03-26T06:09:48.547Z,96.50
2019-03-26T06:12:19.760Z,96.40
2019-03-26T06:14:51.042Z,96.00
2019-03-26T06:17:22.437Z,96.10
2019-03-26T06:19:54.126Z,96.10
2019-03-26T06:22:25.564Z,96.20
2019-03-26T06:24:57.115Z,95.70
2019-03-26T06:27:28.581Z,95.70
2019-03-26T06:30:00.033Z,96.00
2019-03-26T06:32:31.530Z,95.50
2019-03-26T06:35:03.102Z,95.40
2019-03-26T06:37:34.619Z,95.80
2019-03-26T06:40:06.614Z,95.00
2019-03-26T06:42:38.168Z,94.90
2019-03-26T06:45:10.598Z,95.20
2019-03-26T06:47:42.025Z,94.90
2019-03-26T06:50:13.410Z,95.00
2019-03-26T06:52:44.812Z,94.50
2019-03-26T06:55:16.088Z,94.30
2019-03-26T06:57:49.234Z,94.00
2019-03-26T07:00:30.698Z,93.60
2019-03-26T07:03:03.130Z,93.50
2019-03-26T07:05:34.428Z,93.10
2019-03-26T07:08:05.810Z,92.90
2019-03-26T07:10:38.538Z,92.10
2019-03-26T07:13:09.693Z,91.90
2019-03-26T07:15:41.221Z,91.10
2019-03-26T07:18:12.545Z,90.70
2019-03-26T07:20:44.131Z,90.70
2019-03-26T07:23:15.603Z,89.90
2019-03-26T07:25:47.032Z,90.20
2019-03-26T07:28:18.417Z,88.90
2019-03-26T07:30:49.920Z,88.80
2019-03-26T07:33:21.339Z,90.60
2019-03-26T07:35:52.841Z,91.20
2019-03-26T07:38:24.331Z,90.70
2019-03-26T07:40:55.770Z,90.40
2019-03-26T07:43:27.229Z,90.20
2019-03-26T07:46:00.305Z,91.00
2019-03-26T07:48:32.049Z,90.80
2019-03-26T07:51:03.638Z,91.00
2019-03-26T07:53:35.025Z,90.60
2019-03-26T07:56:06.428Z,89.10
2019-03-26T07:58:37.942Z,89.80
2019-03-26T08:01:09.304Z,88.60
2019-03-26T08:03:40.817Z,86.90
2019-03-26T08:06:12.236Z,88.20
2019-03-26T08:08:43.726Z,85.70
2019-03-26T08:11:15.301Z,86.50
2019-03-26T08:13:46.858Z,88.60
2019-03-26T08:16:18.371Z,87.10
2019-03-26T08:18:49.861Z,88.50
2019-03-26T08:21:21.376Z,87.80
2019-03-26T08:23:52.640Z,89.20
2019-03-26T08:26:24.128Z,88.20
2019-03-26T08:28:55.465Z,87.90
2019-03-26T08:31:26.930Z,88.80
2019-03-26T08:33:58.434Z,89.40
2019-03-26T08:36:29.824Z,87.90
2019-03-26T08:39:01.261Z,85.90
2019-03-26T08:41:34.292Z,83.20
2019-03-26T08:44:05.765Z,85.20
2019-03-26T08:46:37.197Z,83.40
2019-03-26T08:49:08.811Z,85.20
2019-03-26T08:51:40.257Z,86.30
2019-03-26T08:54:11.803Z,85.10
2019-03-26T08:56:43.213Z,85.20
2019-03-26T08:59:14.813Z,84.20
2019-03-26T09:01:46.451Z,85.10
2019-03-26T09:04:18.001Z,85.20
2019-03-26T09:06:50.520Z,85.00
2019-03-26T09:09:23.261Z,81.90
2019-03-26T09:11:54.708Z,81.00
2019-03-26T09:14:26.160Z,80.20
2019-03-26T09:16:57.711Z,79.40
2019-03-26T09:19:30.390Z,79.60
2019-03-26T09:22:01.943Z,80.00
2019-03-26T09:24:33.513Z,79.90
2019-03-26T09:27:05.048Z,81.10
2019-03-26T09:29:36.605Z,79.10
2019-03-26T09:32:08.100Z,80.40
2019-03-26T09:34:39.694Z,80.30
2019-03-26T09:37:11.163Z,79.70
2019-03-26T09:39:42.698Z,80.40
2019-03-26T09:42:14.259Z,79.90
2019-03-26T09:44:45.966Z,79.00
2019-03-26T09:47:17.533Z,78.30
2019-03-26T09:49:50.082Z,81.10
2019-03-26T09:52:21.698Z,81.90
2019-03-26T09:54:53.342Z,83.00
2019-03-26T09:57:24.769Z,83.50
2019-03-26T09:59:56.253Z,80.90
2019-03-26T10:02:27.713Z,81.80
2019-03-26T10:04:59.253Z,79.30
2019-03-26T10:07:30.630Z,80.00
2019-03-26T10:10:02.198Z,81.60
2019-03-26T10:12:33.506Z,78.70
2019-03-26T10:15:04.811Z,80.20
2019-03-26T10:17:36.463Z,79.30
2019-03-26T10:20:07.908Z,79.50
2019-03-26T10:22:39.508Z,78.50
2019-03-26T10:25:11.550Z,81.70
2019-03-26T10:27:43.233Z,81.60
2019-03-26T10:30:16.252Z,81.20
2019-03-26T10:32:47.744Z,81.30
2019-03-26T10:35:19.277Z,81.70
2019-03-26T10:37:50.744Z,80.00
2019-03-26T10:40:33.526Z,81.60
2019-03-26T10:43:05.004Z,79.90
2019-03-26T10:45:36.420Z,78.70
2019-03-26T10:48:07.931Z,80.10
2019-03-26T10:50:39.241Z,81.10
2019-03-26T10:53:10.733Z,79.20
2019-03-26T10:55:42.398Z,78.70
2019-03-26T10:58:13.826Z,79.10
2019-03-26T11:00:45.271Z,77.60
2019-03-26T11:03:16.944Z,77.50
2019-03-26T11:05:48.522Z,72.00
2019-03-26T11:08:20.037Z,74.70
2019-03-26T11:10:51.426Z,72.20
2019-03-26T11:13:22.882Z,71.00
2019-03-26T11:15:54.345Z,68.60
2019-03-26T11:18:25.939Z,64.80
2019-03-26T11:21:02.660Z,67.40
2019-03-26T11:23:30.592Z,69.70
2019-03-26T11:26:02.168Z,70.40
2019-03-26T11:28:33.683Z,71.10
2019-03-26T11:31:05.105Z,71.60
2019-03-26T11:33:36.699Z,72.00
2019-03-26T11:36:09.102Z,70.80
2019-03-26T11:38:40.520Z,71.20
2019-03-26T11:41:11.885Z,71.00
2019-03-26T11:43:43.480Z,71.40
2019-03-26T11:46:14.816Z,72.20
2019-03-26T11:48:46.646Z,74.10
2019-03-26T11:51:18.283Z,74.20
2019-03-26T11:53:49.913Z,74.40
2019-03-26T11:56:21.198Z,77.20
2019-03-26T11:58:54.528Z,74.20
2019-03-26T12:01:25.850Z,73.40
2019-03-26T12:03:57.260Z,72.50
2019-03-26T12:06:28.681Z,74.60
2019-03-26T12:09:00.145Z,74.00
2019-03-26T12:11:31.455Z,73.70
2019-03-26T12:14:04.504Z,69.70
2019-03-26T12:16:35.885Z,71.40
2019-03-26T12:19:07.401Z,67.00
2019-03-26T12:21:38.962Z,67.00
2019-03-26T12:24:10.490Z,69.20
2019-03-26T12:26:43.124Z,69.00
2019-03-26T12:29:14.521Z,68.30
2019-03-26T12:31:45.944Z,69.50
2019-03-26T12:34:17.541Z,69.50
2019-03-26T12:36:49.151Z,70.40
2019-03-26T12:39:20.604Z,69.50
2019-03-26T12:41:52.061Z,70.00
2019-03-26T12:44:23.443Z,70.60
2019-03-26T12:46:58.129Z,70.40
2019-03-26T12:49:27.966Z,71.90
2019-03-26T12:51:59.482Z,72.00
2019-03-26T12:54:31.147Z,72.50
2019-03-26T12:57:02.606Z,74.00
2019-03-26T12:59:35.217Z,72.10
2019-03-26T13:02:06.691Z,72.00
2019-03-26T13:04:38.068Z,72.30
2019-03-26T13:07:09.532Z,73.30
2019-03-26T13:09:42.021Z,71.10
2019-03-26T13:12:15.361Z,70.90
2019-03-26T13:14:46.955Z,70.50
2019-03-26T13:17:18.464Z,70.90
2019-03-26T13:19:49.991Z,71.30
2019-03-26T13:22:21.402Z,73.50
2019-03-26T13:24:52.661Z,69.80
2019-03-26T13:27:24.084Z,70.70
2019-03-26T13:29:55.673Z,70.30
2019-03-26T13:32:27.063Z,71.60
2019-03-26T13:34:58.557Z,71.70
2019-03-26T13:37:29.896Z,70.90
2019-03-26T13:40:01.263Z,71.30
2019-03-26T13:42:32.757Z,70.20
2019-03-26T13:45:04.094Z,69.60
2019-03-26T13:47:35.673Z,68.90
2019-03-26T13:50:07.528Z,67.80
2019-03-26T13:52:38.944Z,65.50
2019-03-26T13:55:10.601Z,65.20
2019-03-26T13:57:42.165Z,65.10
2019-03-26T14:00:13.691Z,66.60
2019-03-26T14:02:45.001Z,66.60
2019-03-26T14:05:26.688Z,69.30
2019-03-26T14:07:58.022Z,67.70
2019-03-26T14:10:40.216Z,63.60
2019-03-26T14:13:02.652Z,65.10
2019-03-26T14:15:34.180Z,65.70
2019-03-26T14:18:05.481Z,64.80
2019-03-26T14:20:36.978Z,63.90
2019-03-26T14:23:08.272Z,66.70
2019-03-26T14:25:39.725Z,64.20
2019-03-26T14:28:11.154Z,64.00
2019-03-26T14:30:46.270Z,63.00
2019-03-26T14:33:17.710Z,65.50
2019-03-26T14:35:49.369Z,63.00
2019-03-26T14:38:20.878Z,63.90
2019-03-26T14:40:55.037Z,63.70
2019-03-26T14:46:06.212Z,66.40
2019-03-26T14:48:38.135Z,63.20
2019-03-26T14:51:09.641Z,64.40
2019-03-26T14:53:41.212Z,63.60
2019-03-26T14:56:12.742Z,66.10
2019-03-26T14:58:44.229Z,64.70
2019-03-26T15:01:15.633Z,65.00
2019-03-26T15:03:47.024Z,64.10
2019-03-26T15:06:18.526Z,65.10
2019-03-26T15:08:49.964Z,64.20
2019-03-26T15:11:21.393Z,65.20
2019-03-26T15:13:52.831Z,64.10
2019-03-26T15:16:24.317Z,64.20
2019-03-26T15:18:56.745Z,64.00
2019-03-26T15:21:28.256Z,64.10
2019-03-26T15:24:00.681Z,63.50
2019-03-26T15:26:32.145Z,64.80
2019-03-26T15:29:03.489Z,65.80
2019-03-26T15:31:34.978Z,63.40
2019-03-26T15:34:06.473Z,65.40
2019-03-26T15:36:37.981Z,64.90
2019-03-26T15:39:09.693Z,64.00
2019-03-26T15:41:41.264Z,64.90
2019-03-26T15:44:12.589Z,65.60
2019-03-26T15:46:44.105Z,65.60
2019-03-26T15:49:15.597Z,66.70
2019-03-26T15:51:47.060Z,66.30
2019-03-26T15:54:18.400Z,68.40
2019-03-26T15:56:50.238Z,67.60
2019-03-26T15:59:21.802Z,66.60
2019-03-26T16:01:53.287Z,68.90
2019-03-26T16:04:24.731Z,68.10
2019-03-26T16:06:55.971Z,66.10
2019-03-26T16:09:27.478Z,66.80
2019-03-26T16:11:59.931Z,66.90
2019-03-26T16:14:31.409Z,67.00
2019-03-26T16:17:02.783Z,67.10
2019-03-26T16:19:36.544Z,68.00
2019-03-26T16:22:07.577Z,66.30
2019-03-26T16:24:39.308Z,66.40
2019-03-26T16:27:10.718Z,65.70
2019-03-26T16:29:42.252Z,66.10
2019-03-26T16:32:13.594Z,66.30
2019-03-26T16:34:46.118Z,65.80
2019-03-26T16:37:17.508Z,63.10
2019-03-26T16:39:50.049Z,66.60
2019-03-26T16:42:21.816Z,65.10
2019-03-26T16:44:53.241Z,66.20
2019-03-26T16:47:24.597Z,66.30
2019-03-26T16:49:55.986Z,67.70
2019-03-26T16:52:27.370Z,66.80
2019-03-26T16:54:59.093Z,66.60
2019-03-26T16:57:30.604Z,67.00
2019-03-26T17:00:02.052Z,68.20
2019-03-26T17:02:33.574Z,70.10
2019-03-26T17:05:05.060Z,68.80
2019-03-26T17:07:36.486Z,68.70
2019-03-26T17:10:08.516Z,69.20
2019-03-26T17:12:40.093Z,69.20
2019-03-26T17:15:11.611Z,69.40
2019-03-26T17:17:42.985Z,70.50
2019-03-26T17:20:14.502Z,71.00
2019-03-26T17:22:46.040Z,71.00
2019-03-26T17:25:17.522Z,69.30
2019-03-26T17:27:49.133Z,70.90
2019-03-26T17:30:20.497Z,71.40
2019-03-26T17:32:52.716Z,71.10
2019-03-26T17:35:24.204Z,70.70
2019-03-26T17:37:59.954Z,71.70
2019-03-26T17:40:28.662Z,72.40
2019-03-26T17:43:00.073Z,70.60
2019-03-26T17:45:31.680Z,72.70
2019-03-26T17:48:03.190Z,72.20
2019-03-26T17:50:34.745Z,72.20
2019-03-26T17:53:06.101Z,71.40
2019-03-26T17:55:37.575Z,72.20
2019-03-26T17:58:09.057Z,72.10
2019-03-26T18:00:42.798Z,71.00
2019-03-26T18:03:25.503Z,71.90
2019-03-26T18:05:47.241Z,73.20
2019-03-26T18:08:18.625Z,72.20
2019-03-26T18:10:50.073Z,74.40
2019-03-26T18:13:21.648Z,74.30
2019-03-26T18:15:52.846Z,74.90
2019-03-26T18:18:24.389Z,74.30
2019-03-26T18:20:55.839Z,74.20
2019-03-26T18:23:27.340Z,74.90
2019-03-26T18:25:58.842Z,76.30
2019-03-26T18:28:30.338Z,76.10
2019-03-26T18:31:02.945Z,75.70
2019-03-26T18:33:34.384Z,76.00
2019-03-26T18:36:06.003Z,75.90
2019-03-26T18:38:37.585Z,76.00
2019-03-26T18:41:09.007Z,76.30
2019-03-26T18:43:40.716Z,77.30
2019-03-26T18:46:12.160Z,75.90
2019-03-26T18:48:43.600Z,76.30
2019-03-26T18:51:15.005Z,77.00
2019-03-26T18:53:47.483Z,77.30
2019-03-26T18:56:19.146Z,78.10
2019-03-26T18:58:50.620Z,77.50
2019-03-26T19:01:22.015Z,79.50
2019-03-26T19:03:53.799Z,79.30
2019-03-26T19:06:25.248Z,78.70
2019-03-26T19:08:56.718Z,79.40
2019-03-26T19:11:28.125Z,79.70
2019-03-26T19:13:59.803Z,80.00
2019-03-26T19:16:31.328Z,81.30
2019-03-26T19:19:02.736Z,81.30
2019-03-26T19:21:35.254Z,80.30
2019-03-26T19:24:06.819Z,79.60
2019-03-26T19:26:38.134Z,80.90
2019-03-26T19:29:09.464Z,80.20
2019-03-26T19:31:40.880Z,80.70
2019-03-26T19:34:12.503Z,80.70
2019-03-26T19:36:44.160Z,80.40
2019-03-26T19:39:15.613Z,81.10
2019-03-26T19:41:47.097Z,80.80
2019-03-26T19:44:18.557Z,80.60
2019-03-26T19:46:50.063Z,80.30
2019-03-26T19:49:21.744Z,80.70
2019-03-26T19:51:53.420Z,80.80
2019-03-26T19:54:24.951Z,81.40
2019-03-26T19:56:56.478Z,81.30
2019-03-26T19:59:28.056Z,81.80
2019-03-26T20:01:59.513Z,82.00
2019-03-26T20:04:30.902Z,82.50
2019-03-26T20:07:02.568Z,82.40
2019-03-26T20:09:34.009Z,82.20
2019-03-26T20:12:05.650Z,83.30
2019-03-26T20:14:37.000Z,83.20
2019-03-26T20:17:08.484Z,83.30
2019-03-26T20:19:39.805Z,83.50
2019-03-26T20:22:11.209Z,83.80
2019-03-26T20:24:42.504Z,83.90
2019-03-26T20:27:13.961Z,83.20
2019-03-26T20:29:45.405Z,83.30
2019-03-26T20:32:16.777Z,82.90
2019-03-26T20:34:48.293Z,83.10
2019-03-26T20:37:19.682Z,84.70
2019-03-26T20:39:51.216Z,84.40
2019-03-26T20:42:22.912Z,84.10
2019-03-26T20:44:54.505Z,84.10
2019-03-26T20:47:25.896Z,84.00
2019-03-26T20:49:57.507Z,83.30
2019-03-26T20:52:29.029Z,83.30
2019-03-26T20:55:00.697Z,84.90
2019-03-26T20:57:32.303Z,83.60
2019-03-26T21:00:03.781Z,84.50
2019-03-26T21:02:35.517Z,84.70
2019-03-26T21:05:07.863Z,83.70
2019-03-26T21:07:39.768Z,83.90
2019-03-26T21:10:11.156Z,84.00
2019-03-26T21:12:43.757Z,83.90
2019-03-26T21:15:15.273Z,85.10
2019-03-26T21:17:46.907Z,85.00
2019-03-26T21:20:18.449Z,84.80
2019-03-26T21:22:50.005Z,85.20
2019-03-26T21:25:21.530Z,86.20
2019-03-26T21:27:53.090Z,85.20
2019-03-26T21:30:24.492Z,84.90
2019-03-26T21:32:55.971Z,85.40
2019-03-26T21:35:28.900Z,85.60
2019-03-26T21:38:00.408Z,86.30
2019-03-26T21:40:31.826Z,86.60
2019-03-26T21:43:03.345Z,86.30
2019-03-26T21:45:39.476Z,86.70
2019-03-26T21:48:11.021Z,87.80
2019-03-26T21:50:42.200Z,87.60
2019-03-26T21:53:15.562Z,87.00
2019-03-26T21:55:47.045Z,86.50
2019-03-26T21:58:18.485Z,86.30
2019-03-26T22:00:49.962Z,86.10
2019-03-26T22:03:21.485Z,86.10
2019-03-26T22:05:52.767Z,86.30
2019-03-26T22:08:24.066Z,86.30
2019-03-26T22:10:55.674Z,85.40
2019-03-26T22:13:27.125Z,85.70
2019-03-26T22:15:58.582Z,85.80
2019-03-26T22:18:30.073Z,86.20
2019-03-26T22:21:01.215Z,85.70
2019-03-26T22:23:32.371Z,87.00
2019-03-26T22:26:03.705Z,86.90
2019-03-26T22:28:35.119Z,87.60
2019-03-26T22:31:06.386Z,87.30
2019-03-26T22:33:37.855Z,86.90
2019-03-26T22:36:09.095Z,87.50
2019-03-26T22:38:40.548Z,86.90
2019-03-26T22:41:11.985Z,86.90
2019-03-26T22:43:43.572Z,86.80
2019-03-26T22:46:14.945Z,88.20
2019-03-26T22:48:46.472Z,88.90
2019-03-26T22:51:18.009Z,89.30
2019-03-26T22:53:50.584Z,90.20
2019-03-26T22:56:21.982Z,89.40
2019-03-26T22:58:53.486Z,88.80
2019-03-26T23:01:24.951Z,90.60
2019-03-26T23:03:56.709Z,90.50
2019-03-26T23:06:28.213Z,89.60
2019-03-26T23:08:59.702Z,90.00
2019-03-26T23:11:31.078Z,90.00
2019-03-26T23:14:03.649Z,90.50
2019-03-26T23:16:35.222Z,90.50
2019-03-26T23:19:06.841Z,90.90
2019-03-26T23:21:38.321Z,90.70
2019-03-26T23:24:09.753Z,90.90
2019-03-26T23:26:41.352Z,90.70
2019-03-26T23:29:12.901Z,90.90
2019-03-26T23:31:44.357Z,91.40
2019-03-26T23:34:17.624Z,90.60
2019-03-26T23:36:49.246Z,90.30
2019-03-26T23:39:20.737Z,90.30
2019-03-26T23:41:52.353Z,90.70
2019-03-26T23:44:26.077Z,89.80
2019-03-26T23:46:56.921Z,90.80
2019-03-26T23:49:28.264Z,91.10
2019-03-26T23:51:59.498Z,90.50
2019-03-26T23:54:30.992Z,90.10
2019-03-26T23:57:02.345Z,90.10
2019-03-26T23:59:33.713Z,90.30
